Aérodrome :
LOGIN :

S'inscrire | Disclaimer

   EN    FR    IT 

 










Légende :    VFR   VFR Marginal   IFR   IFR Intensif   IFR Très Intensif
Visi : 
Plafond : 
>= 8 km
>= 3000ft
5 à 8 km
1000 à 3000 ft
1500m à 5 km
500 à 1000 ft
800 à 1500m
200 à 500 ft
< 800m
< 200 ft
Symboles :   Orages  Brouillard  Fortes neiges  Fortes précipitations  Vent > 20 kt
SIGMETs :   Divers  Orages  Givrage  Turbulence  Onde Orograph.  Cendres Volcan.







- Altitude de l'aérodrome : 699 ft
- Code IATA : PAD


EDLP - Paderborn Lippstadt

DERNIER METAR :
  • 260650Z 23011KT CAVOK 14/09 Q1015

METARs EXPIRÉS :
  • 260620Z 23008KT 9999 FEW030 14/09 Q1015
  • 260550Z 22009KT 9999 SCT037 13/09 Q1015
  • 260520Z 20010KT 9999 BKN036 12/07 Q1015
  • 260450Z 20010KT CAVOK 11/06 Q1015
  • 260420Z 20011KT CAVOK 11/06 Q1015
  • 260350Z 19010KT CAVOK 11/06 Q1015

TAF TAF EDLP
Valide du 26 à 06h jusqu'au 27 à 06h UTC


260500Z 2606/2706 23010KT CAVOK
BECMG 2702/2704 BKN010
TEMPO 2704/2706 BKN006
Pas de NOTAMs connus pour ce terrain.



MET'MAP, la Météo Aéronautique d'un coup d'oeil ! - Copyright ORBIFLY Décembre 2007 - Disclaimer

ORBIFLY MET'MAP TEAM :

Programmation & Développement : Alexandra Zaïnal
Conception & Développement : Baudouin d'Aumeries
Co-Programmation & Développement : Marc-Olivier Méhu
Soutien technique & logistique : Manuel Goepfert

Contact : metmap@orbifly.com




SOURCES & CREDITS :

   NOAA